sensor_id;sensor_type;location;lat;lon;timestamp;P1;durP1;ratioP1;P2;durP2;ratioP2
1402;SDS011;696;48.546;9.896;2023-07-30T00:01:10;3.53;;;2.15;;
1402;SDS011;696;48.546;9.896;2023-07-30T00:03:36;4.47;;;2.55;;
1402;SDS011;696;48.546;9.896;2023-07-30T00:06:01;6.05;;;2.72;;
1402;SDS011;696;48.546;9.896;2023-07-30T00:08:26;4.75;;;2.75;;
1402;SDS011;696;48.546;9.896;2023-07-30T00:10:52;4.22;;;2.25;;
1402;SDS011;696;48.546;9.896;2023-07-30T00:13:17;4.32;;;2.30;;
1402;SDS011;696;48.546;9.896;2023-07-30T00:15:42;4.03;;;2.60;;
1402;SDS011;696;48.546;9.896;2023-07-30T00:18:08;2.58;;;2.05;;
1402;SDS011;696;48.546;9.896;2023-07-30T00:20:34;3.90;;;2.60;;
1402;SDS011;696;48.546;9.896;2023-07-30T00:23:00;7.72;;;2.40;;
1402;SDS011;696;48.546;9.896;2023-07-30T00:25:26;3.40;;;2.35;;
1402;SDS011;696;48.546;9.896;2023-07-30T00:27:51;4.75;;;2.70;;
1402;SDS011;696;48.546;9.896;2023-07-30T00:30:16;5.85;;;2.45;;
1402;SDS011;696;48.546;9.896;2023-07-30T00:32:42;4.82;;;2.80;;
1402;SDS011;696;48.546;9.896;2023-07-30T00:35:08;3.00;;;2.50;;
1402;SDS011;696;48.546;9.896;2023-07-30T00:37:36;3.92;;;2.40;;
1402;SDS011;696;48.546;9.896;2023-07-30T00:40:02;4.47;;;2.42;;
1402;SDS011;696;48.546;9.896;2023-07-30T00:42:28;2.65;;;2.25;;
1402;SDS011;696;48.546;9.896;2023-07-30T00:44:54;5.63;;;2.40;;
1402;SDS011;696;48.546;9.896;2023-07-30T00:47:20;2.33;;;2.03;;
1402;SDS011;696;48.546;9.896;2023-07-30T00:49:45;7.28;;;2.47;;
1402;SDS011;696;48.546;9.896;2023-07-30T00:52:11;3.30;;;2.15;;
1402;SDS011;696;48.546;9.896;2023-07-30T00:54:36;4.25;;;2.47;;
1402;SDS011;696;48.546;9.896;2023-07-30T00:57:04;3.53;;;2.60;;
1402;SDS011;696;48.546;9.896;2023-07-30T00:59:29;3.33;;;2.40;;
1402;SDS011;696;48.546;9.896;2023-07-30T01:01:55;3.70;;;2.65;;
1402;SDS011;696;48.546;9.896;2023-07-30T01:04:21;4.53;;;2.45;;
1402;SDS011;696;48.546;9.896;2023-07-30T01:06:46;2.95;;;2.17;;
1402;SDS011;696;48.546;9.896;2023-07-30T01:09:11;4.18;;;2.40;;
1402;SDS011;696;48.546;9.896;2023-07-30T01:11:37;4.90;;;2.78;;
1402;SDS011;696;48.546;9.896;2023-07-30T01:14:04;3.67;;;2.30;;
1402;SDS011;696;48.546;9.896;2023-07-30T01:16:30;4.32;;;2.40;;
1402;SDS011;696;48.546;9.896;2023-07-30T01:18:55;3.92;;;2.45;;
1402;SDS011;696;48.546;9.896;2023-07-30T01:21:21;5.45;;;2.47;;
1402;SDS011;696;48.546;9.896;2023-07-30T01:23:46;4.47;;;2.38;;
1402;SDS011;696;48.546;9.896;2023-07-30T01:26:12;6.75;;;2.33;;
1402;SDS011;696;48.546;9.896;2023-07-30T01:28:46;2.60;;;2.10;;
1402;SDS011;696;48.546;9.896;2023-07-30T01:31:14;4.90;;;2.20;;
1402;SDS011;696;48.546;9.896;2023-07-30T01:33:41;7.63;;;2.33;;
1402;SDS011;696;48.546;9.896;2023-07-30T01:36:07;7.20;;;2.40;;
1402;SDS011;696;48.546;9.896;2023-07-30T01:38:34;2.50;;;2.20;;
1402;SDS011;696;48.546;9.896;2023-07-30T01:40:59;5.50;;;2.42;;
1402;SDS011;696;48.546;9.896;2023-07-30T01:43:25;4.03;;;2.30;;
1402;SDS011;696;48.546;9.896;2023-07-30T01:45:50;4.15;;;2.00;;
1402;SDS011;696;48.546;9.896;2023-07-30T01:48:15;4.70;;;2.25;;
1402;SDS011;696;48.546;9.896;2023-07-30T01:50:41;5.05;;;2.20;;
1402;SDS011;696;48.546;9.896;2023-07-30T01:53:06;13.15;;;2.50;;
1402;SDS011;696;48.546;9.896;2023-07-30T01:55:31;3.85;;;2.40;;
1402;SDS011;696;48.546;9.896;2023-07-30T01:57:57;4.20;;;2.33;;
1402;SDS011;696;48.546;9.896;2023-07-30T02:00:22;4.60;;;2.08;;
1402;SDS011;696;48.546;9.896;2023-07-30T02:02:47;3.22;;;2.30;;
1402;SDS011;696;48.546;9.896;2023-07-30T02:05:13;2.97;;;2.15;;
1402;SDS011;696;48.546;9.896;2023-07-30T02:07:38;3.80;;;2.17;;
1402;SDS011;696;48.546;9.896;2023-07-30T02:10:04;5.32;;;1.92;;
1402;SDS011;696;48.546;9.896;2023-07-30T02:12:29;3.40;;;2.47;;
1402;SDS011;696;48.546;9.896;2023-07-30T02:14:54;3.42;;;2.17;;
1402;SDS011;696;48.546;9.896;2023-07-30T02:17:20;4.30;;;2.15;;
1402;SDS011;696;48.546;9.896;2023-07-30T02:19:45;3.90;;;2.45;;
1402;SDS011;696;48.546;9.896;2023-07-30T02:22:10;6.38;;;1.80;;
1402;SDS011;696;48.546;9.896;2023-07-30T02:24:36;6.07;;;1.92;;
1402;SDS011;696;48.546;9.896;2023-07-30T02:27:01;3.63;;;2.10;;
1402;SDS011;696;48.546;9.896;2023-07-30T02:29:27;2.25;;;2.05;;
1402;SDS011;696;48.546;9.896;2023-07-30T02:31:52;2.85;;;2.38;;
1402;SDS011;696;48.546;9.896;2023-07-30T02:34:19;9.45;;;2.67;;
1402;SDS011;696;48.546;9.896;2023-07-30T02:36:44;6.50;;;2.35;;
1402;SDS011;696;48.546;9.896;2023-07-30T02:39:09;3.67;;;2.38;;
1402;SDS011;696;48.546;9.896;2023-07-30T02:41:35;6.05;;;2.35;;
1402;SDS011;696;48.546;9.896;2023-07-30T02:44:00;3.55;;;2.47;;
1402;SDS011;696;48.546;9.896;2023-07-30T02:46:25;2.42;;;1.92;;
1402;SDS011;696;48.546;9.896;2023-07-30T02:48:51;1.92;;;1.60;;
1402;SDS011;696;48.546;9.896;2023-07-30T02:51:16;2.78;;;2.00;;
1402;SDS011;696;48.546;9.896;2023-07-30T02:53:44;2.92;;;2.08;;
1402;SDS011;696;48.546;9.896;2023-07-30T02:56:10;3.45;;;1.70;;
1402;SDS011;696;48.546;9.896;2023-07-30T02:58:35;2.05;;;1.85;;
1402;SDS011;696;48.546;9.896;2023-07-30T03:01:07;3.58;;;2.13;;
1402;SDS011;696;48.546;9.896;2023-07-30T03:03:33;2.58;;;1.90;;
1402;SDS011;696;48.546;9.896;2023-07-30T03:05:58;3.08;;;2.03;;
1402;SDS011;696;48.546;9.896;2023-07-30T03:08:23;4.57;;;1.98;;
1402;SDS011;696;48.546;9.896;2023-07-30T03:10:49;1.83;;;1.55;;
1402;SDS011;696;48.546;9.896;2023-07-30T03:13:14;10.00;;;2.10;;
1402;SDS011;696;48.546;9.896;2023-07-30T03:15:39;3.55;;;2.33;;
1402;SDS011;696;48.546;9.896;2023-07-30T03:18:05;2.75;;;1.58;;
1402;SDS011;696;48.546;9.896;2023-07-30T03:20:30;5.00;;;2.22;;
1402;SDS011;696;48.546;9.896;2023-07-30T03:22:55;4.72;;;1.90;;
1402;SDS011;696;48.546;9.896;2023-07-30T03:25:21;7.13;;;2.05;;
1402;SDS011;696;48.546;9.896;2023-07-30T03:27:46;4.50;;;2.40;;
1402;SDS011;696;48.546;9.896;2023-07-30T03:30:11;2.63;;;1.58;;
1402;SDS011;696;48.546;9.896;2023-07-30T03:32:37;5.80;;;2.28;;
1402;SDS011;696;48.546;9.896;2023-07-30T03:35:02;5.75;;;2.25;;
1402;SDS011;696;48.546;9.896;2023-07-30T03:37:27;4.45;;;1.85;;
1402;SDS011;696;48.546;9.896;2023-07-30T03:39:53;5.85;;;2.55;;
1402;SDS011;696;48.546;9.896;2023-07-30T03:42:18;3.53;;;1.98;;
1402;SDS011;696;48.546;9.896;2023-07-30T03:44:44;3.03;;;2.30;;
1402;SDS011;696;48.546;9.896;2023-07-30T03:47:09;5.00;;;2.53;;
1402;SDS011;696;48.546;9.896;2023-07-30T03:49:34;3.85;;;2.33;;
1402;SDS011;696;48.546;9.896;2023-07-30T03:52:00;5.25;;;2.28;;
1402;SDS011;696;48.546;9.896;2023-07-30T03:54:25;2.85;;;2.30;;
1402;SDS011;696;48.546;9.896;2023-07-30T03:56:50;2.55;;;1.98;;
1402;SDS011;696;48.546;9.896;2023-07-30T03:59:16;2.65;;;2.03;;
1402;SDS011;696;48.546;9.896;2023-07-30T04:01:41;4.57;;;2.25;;
1402;SDS011;696;48.546;9.896;2023-07-30T04:04:06;6.35;;;2.15;;
1402;SDS011;696;48.546;9.896;2023-07-30T04:06:32;3.20;;;2.22;;
1402;SDS011;696;48.546;9.896;2023-07-30T04:08:57;4.43;;;2.53;;
1402;SDS011;696;48.546;9.896;2023-07-30T04:11:22;3.53;;;2.05;;
1402;SDS011;696;48.546;9.896;2023-07-30T04:13:48;2.83;;;2.05;;
1402;SDS011;696;48.546;9.896;2023-07-30T04:16:13;3.55;;;2.50;;
1402;SDS011;696;48.546;9.896;2023-07-30T04:21:06;3.55;;;2.15;;
1402;SDS011;696;48.546;9.896;2023-07-30T04:23:31;3.72;;;2.63;;
1402;SDS011;696;48.546;9.896;2023-07-30T04:25:57;7.30;;;2.17;;
1402;SDS011;696;48.546;9.896;2023-07-30T04:28:22;2.97;;;1.98;;
1402;SDS011;696;48.546;9.896;2023-07-30T04:30:48;4.25;;;2.10;;
1402;SDS011;696;48.546;9.896;2023-07-30T04:33:13;3.75;;;1.63;;
1402;SDS011;696;48.546;9.896;2023-07-30T04:35:40;6.53;;;2.28;;
1402;SDS011;696;48.546;9.896;2023-07-30T04:38:05;4.80;;;2.42;;
1402;SDS011;696;48.546;9.896;2023-07-30T04:40:31;3.15;;;1.88;;
1402;SDS011;696;48.546;9.896;2023-07-30T04:42:56;6.13;;;2.13;;
1402;SDS011;696;48.546;9.896;2023-07-30T04:45:21;2.05;;;1.75;;
1402;SDS011;696;48.546;9.896;2023-07-30T04:47:46;3.25;;;1.90;;
1402;SDS011;696;48.546;9.896;2023-07-30T04:50:12;2.25;;;1.55;;
1402;SDS011;696;48.546;9.896;2023-07-30T04:52:37;2.10;;;1.80;;
1402;SDS011;696;48.546;9.896;2023-07-30T04:55:03;6.80;;;2.45;;
1402;SDS011;696;48.546;9.896;2023-07-30T04:57:28;6.60;;;2.50;;
1402;SDS011;696;48.546;9.896;2023-07-30T04:59:54;4.72;;;2.25;;
1402;SDS011;696;48.546;9.896;2023-07-30T05:02:19;10.00;;;1.95;;
1402;SDS011;696;48.546;9.896;2023-07-30T05:04:44;3.63;;;1.80;;
1402;SDS011;696;48.546;9.896;2023-07-30T05:07:10;3.88;;;2.33;;
1402;SDS011;696;48.546;9.896;2023-07-30T05:09:35;4.80;;;2.13;;
1402;SDS011;696;48.546;9.896;2023-07-30T05:12:01;2.40;;;1.92;;
1402;SDS011;696;48.546;9.896;2023-07-30T05:14:26;6.13;;;2.00;;
1402;SDS011;696;48.546;9.896;2023-07-30T05:16:52;3.95;;;2.03;;
1402;SDS011;696;48.546;9.896;2023-07-30T05:19:17;3.70;;;2.85;;
1402;SDS011;696;48.546;9.896;2023-07-30T05:21:42;5.10;;;2.20;;
1402;SDS011;696;48.546;9.896;2023-07-30T05:24:08;4.20;;;2.40;;
1402;SDS011;696;48.546;9.896;2023-07-30T05:26:33;3.30;;;2.13;;
1402;SDS011;696;48.546;9.896;2023-07-30T05:28:59;3.88;;;2.60;;
1402;SDS011;696;48.546;9.896;2023-07-30T05:31:24;7.57;;;2.50;;
1402;SDS011;696;48.546;9.896;2023-07-30T05:33:49;7.63;;;2.63;;
1402;SDS011;696;48.546;9.896;2023-07-30T05:36:15;3.65;;;2.25;;
1402;SDS011;696;48.546;9.896;2023-07-30T05:38:40;7.20;;;2.28;;
1402;SDS011;696;48.546;9.896;2023-07-30T05:41:05;6.28;;;2.75;;
1402;SDS011;696;48.546;9.896;2023-07-30T05:43:31;5.70;;;2.70;;
1402;SDS011;696;48.546;9.896;2023-07-30T05:45:56;3.53;;;2.42;;
1402;SDS011;696;48.546;9.896;2023-07-30T05:48:21;7.30;;;2.45;;
1402;SDS011;696;48.546;9.896;2023-07-30T05:50:46;5.20;;;3.03;;
1402;SDS011;696;48.546;9.896;2023-07-30T05:53:12;7.63;;;4.10;;
1402;SDS011;696;48.546;9.896;2023-07-30T05:55:37;7.88;;;4.50;;
1402;SDS011;696;48.546;9.896;2023-07-30T05:58:02;10.23;;;4.35;;
1402;SDS011;696;48.546;9.896;2023-07-30T06:00:28;5.03;;;3.38;;
1402;SDS011;696;48.546;9.896;2023-07-30T06:02:53;5.75;;;3.35;;
1402;SDS011;696;48.546;9.896;2023-07-30T06:05:18;3.97;;;3.15;;
1402;SDS011;696;48.546;9.896;2023-07-30T06:07:44;7.03;;;3.10;;
1402;SDS011;696;48.546;9.896;2023-07-30T06:10:10;4.07;;;2.85;;
1402;SDS011;696;48.546;9.896;2023-07-30T06:12:35;4.88;;;2.95;;
1402;SDS011;696;48.546;9.896;2023-07-30T06:15:00;6.50;;;3.55;;
1402;SDS011;696;48.546;9.896;2023-07-30T06:17:26;3.05;;;2.45;;
1402;SDS011;696;48.546;9.896;2023-07-30T06:19:51;2.88;;;1.77;;
1402;SDS011;696;48.546;9.896;2023-07-30T06:22:16;2.90;;;1.63;;
1402;SDS011;696;48.546;9.896;2023-07-30T06:24:42;1.70;;;1.50;;
1402;SDS011;696;48.546;9.896;2023-07-30T06:27:07;3.88;;;1.45;;
1402;SDS011;696;48.546;9.896;2023-07-30T06:29:34;1.55;;;1.45;;
1402;SDS011;696;48.546;9.896;2023-07-30T06:32:00;2.83;;;1.73;;
1402;SDS011;696;48.546;9.896;2023-07-30T06:34:25;3.55;;;1.30;;
1402;SDS011;696;48.546;9.896;2023-07-30T06:36:50;1.92;;;1.40;;
1402;SDS011;696;48.546;9.896;2023-07-30T06:39:16;1.63;;;1.38;;
1402;SDS011;696;48.546;9.896;2023-07-30T06:41:41;2.13;;;1.50;;
1402;SDS011;696;48.546;9.896;2023-07-30T06:44:07;2.42;;;1.20;;
1402;SDS011;696;48.546;9.896;2023-07-30T06:46:33;2.78;;;1.60;;
1402;SDS011;696;48.546;9.896;2023-07-30T06:48:58;3.80;;;2.58;;
1402;SDS011;696;48.546;9.896;2023-07-30T06:51:24;3.30;;;2.33;;
1402;SDS011;696;48.546;9.896;2023-07-30T06:53:50;6.25;;;2.97;;
1402;SDS011;696;48.546;9.896;2023-07-30T06:56:15;9.00;;;3.63;;
1402;SDS011;696;48.546;9.896;2023-07-30T06:58:40;6.93;;;2.92;;
1402;SDS011;696;48.546;9.896;2023-07-30T07:01:06;8.35;;;2.85;;
1402;SDS011;696;48.546;9.896;2023-07-30T07:03:31;4.22;;;2.40;;
1402;SDS011;696;48.546;9.896;2023-07-30T07:05:56;2.10;;;1.90;;
1402;SDS011;696;48.546;9.896;2023-07-30T07:08:22;2.28;;;1.70;;
1402;SDS011;696;48.546;9.896;2023-07-30T07:10:48;2.00;;;1.70;;
1402;SDS011;696;48.546;9.896;2023-07-30T07:13:13;2.03;;;1.50;;
1402;SDS011;696;48.546;9.896;2023-07-30T07:15:42;2.03;;;1.40;;
1402;SDS011;696;48.546;9.896;2023-07-30T07:18:08;1.70;;;1.60;;
1402;SDS011;696;48.546;9.896;2023-07-30T07:20:33;1.63;;;1.30;;
1402;SDS011;696;48.546;9.896;2023-07-30T07:22:58;4.15;;;1.48;;
1402;SDS011;696;48.546;9.896;2023-07-30T07:25:24;3.53;;;1.52;;
1402;SDS011;696;48.546;9.896;2023-07-30T07:27:49;1.40;;;1.30;;
1402;SDS011;696;48.546;9.896;2023-07-30T07:30:15;1.95;;;1.38;;
1402;SDS011;696;48.546;9.896;2023-07-30T07:32:40;1.50;;;1.17;;
1402;SDS011;696;48.546;9.896;2023-07-30T07:35:06;1.40;;;1.30;;
1402;SDS011;696;48.546;9.896;2023-07-30T07:37:32;1.73;;;1.27;;
1402;SDS011;696;48.546;9.896;2023-07-30T07:39:57;1.70;;;1.27;;
1402;SDS011;696;48.546;9.896;2023-07-30T07:42:22;1.80;;;1.23;;
1402;SDS011;696;48.546;9.896;2023-07-30T07:44:48;1.75;;;1.30;;
1402;SDS011;696;48.546;9.896;2023-07-30T07:47:13;2.17;;;1.40;;
1402;SDS011;696;48.546;9.896;2023-07-30T07:49:39;1.88;;;1.40;;
1402;SDS011;696;48.546;9.896;2023-07-30T07:52:04;2.20;;;1.20;;
1402;SDS011;696;48.546;9.896;2023-07-30T07:54:30;5.18;;;0.95;;
1402;SDS011;696;48.546;9.896;2023-07-30T07:56:55;1.60;;;1.30;;
1402;SDS011;696;48.546;9.896;2023-07-30T07:59:20;1.25;;;1.10;;
1402;SDS011;696;48.546;9.896;2023-07-30T08:01:46;6.65;;;1.27;;
1402;SDS011;696;48.546;9.896;2023-07-30T08:04:11;1.25;;;1.15;;
1402;SDS011;696;48.546;9.896;2023-07-30T08:06:36;1.63;;;1.10;;
1402;SDS011;696;48.546;9.896;2023-07-30T08:09:01;1.20;;;1.10;;
1402;SDS011;696;48.546;9.896;2023-07-30T08:11:27;1.73;;;1.10;;
1402;SDS011;696;48.546;9.896;2023-07-30T08:13:52;3.78;;;1.38;;
1402;SDS011;696;48.546;9.896;2023-07-30T08:16:18;2.33;;;1.23;;
1402;SDS011;696;48.546;9.896;2023-07-30T08:18:43;1.55;;;1.15;;
1402;SDS011;696;48.546;9.896;2023-07-30T08:21:08;1.00;;;0.95;;
1402;SDS011;696;48.546;9.896;2023-07-30T08:23:34;3.45;;;1.27;;
1402;SDS011;696;48.546;9.896;2023-07-30T08:25:59;4.03;;;1.15;;
1402;SDS011;696;48.546;9.896;2023-07-30T08:28:24;1.98;;;1.42;;
1402;SDS011;696;48.546;9.896;2023-07-30T08:30:50;4.65;;;0.93;;
1402;SDS011;696;48.546;9.896;2023-07-30T08:33:15;1.33;;;0.80;;
1402;SDS011;696;48.546;9.896;2023-07-30T08:35:40;1.65;;;1.00;;
1402;SDS011;696;48.546;9.896;2023-07-30T08:38:06;1.20;;;1.10;;
1402;SDS011;696;48.546;9.896;2023-07-30T08:40:31;8.52;;;1.23;;
1402;SDS011;696;48.546;9.896;2023-07-30T08:42:57;2.75;;;1.15;;
1402;SDS011;696;48.546;9.896;2023-07-30T08:45:22;1.38;;;1.00;;
1402;SDS011;696;48.546;9.896;2023-07-30T08:47:48;1.45;;;1.23;;
1402;SDS011;696;48.546;9.896;2023-07-30T08:50:13;2.38;;;1.40;;
1402;SDS011;696;48.546;9.896;2023-07-30T08:52:39;1.23;;;1.13;;
1402;SDS011;696;48.546;9.896;2023-07-30T08:55:05;4.28;;;1.63;;
1402;SDS011;696;48.546;9.896;2023-07-30T08:57:31;1.60;;;1.50;;
1402;SDS011;696;48.546;9.896;2023-07-30T09:00:01;1.98;;;1.30;;
1402;SDS011;696;48.546;9.896;2023-07-30T09:02:39;1.60;;;1.23;;
1402;SDS011;696;48.546;9.896;2023-07-30T09:05:08;3.38;;;1.65;;
1402;SDS011;696;48.546;9.896;2023-07-30T09:07:33;6.75;;;1.85;;
1402;SDS011;696;48.546;9.896;2023-07-30T09:09:59;1.92;;;1.25;;
1402;SDS011;696;48.546;9.896;2023-07-30T09:12:31;1.40;;;1.27;;
1402;SDS011;696;48.546;9.896;2023-07-30T09:14:57;1.42;;;1.20;;
1402;SDS011;696;48.546;9.896;2023-07-30T09:17:23;1.60;;;1.13;;
1402;SDS011;696;48.546;9.896;2023-07-30T09:19:48;1.75;;;1.40;;
1402;SDS011;696;48.546;9.896;2023-07-30T09:22:25;2.70;;;1.50;;
1402;SDS011;696;48.546;9.896;2023-07-30T09:24:52;1.50;;;1.20;;
1402;SDS011;696;48.546;9.896;2023-07-30T09:27:22;1.58;;;1.38;;
1402;SDS011;696;48.546;9.896;2023-07-30T09:29:54;6.15;;;1.27;;
1402;SDS011;696;48.546;9.896;2023-07-30T09:32:25;1.88;;;0.85;;
1402;SDS011;696;48.546;9.896;2023-07-30T09:34:51;2.03;;;1.00;;
1402;SDS011;696;48.546;9.896;2023-07-30T09:37:16;1.95;;;1.30;;
1402;SDS011;696;48.546;9.896;2023-07-30T09:39:41;1.67;;;1.20;;
1402;SDS011;696;48.546;9.896;2023-07-30T09:42:07;1.33;;;0.95;;
1402;SDS011;696;48.546;9.896;2023-07-30T09:44:32;1.98;;;1.08;;
1402;SDS011;696;48.546;9.896;2023-07-30T09:46:58;2.05;;;1.33;;
1402;SDS011;696;48.546;9.896;2023-07-30T09:49:30;2.35;;;1.33;;
1402;SDS011;696;48.546;9.896;2023-07-30T09:51:56;1.35;;;1.25;;
1402;SDS011;696;48.546;9.896;2023-07-30T09:54:21;1.25;;;1.10;;
1402;SDS011;696;48.546;9.896;2023-07-30T09:56:47;1.77;;;1.20;;
1402;SDS011;696;48.546;9.896;2023-07-30T09:59:12;2.42;;;1.17;;
1402;SDS011;696;48.546;9.896;2023-07-30T10:01:41;1.25;;;1.15;;
1402;SDS011;696;48.546;9.896;2023-07-30T10:04:09;2.50;;;1.20;;
1402;SDS011;696;48.546;9.896;2023-07-30T10:06:36;1.55;;;1.10;;
1402;SDS011;696;48.546;9.896;2023-07-30T10:09:05;2.47;;;1.17;;
1402;SDS011;696;48.546;9.896;2023-07-30T10:11:31;5.93;;;1.30;;
1402;SDS011;696;48.546;9.896;2023-07-30T10:13:56;1.67;;;0.98;;
1402;SDS011;696;48.546;9.896;2023-07-30T10:16:25;2.47;;;1.10;;
1402;SDS011;696;48.546;9.896;2023-07-30T10:18:55;1.35;;;1.00;;
1402;SDS011;696;48.546;9.896;2023-07-30T10:21:22;1.27;;;1.00;;
1402;SDS011;696;48.546;9.896;2023-07-30T10:24:02;1.83;;;1.27;;
1402;SDS011;696;48.546;9.896;2023-07-30T10:26:29;1.50;;;1.23;;
1402;SDS011;696;48.546;9.896;2023-07-30T10:29:12;1.30;;;1.02;;
1402;SDS011;696;48.546;9.896;2023-07-30T10:31:39;1.20;;;1.10;;
1402;SDS011;696;48.546;9.896;2023-07-30T10:34:08;1.95;;;1.08;;
1402;SDS011;696;48.546;9.896;2023-07-30T10:36:45;1.92;;;1.13;;
1402;SDS011;696;48.546;9.896;2023-07-30T10:41:37;3.53;;;0.80;;
1402;SDS011;696;48.546;9.896;2023-07-30T10:44:03;1.20;;;1.02;;
1402;SDS011;696;48.546;9.896;2023-07-30T10:46:28;1.67;;;1.08;;
1402;SDS011;696;48.546;9.896;2023-07-30T10:48:53;6.00;;;1.30;;
1402;SDS011;696;48.546;9.896;2023-07-30T10:51:19;1.13;;;1.02;;
1402;SDS011;696;48.546;9.896;2023-07-30T10:53:49;2.53;;;1.35;;
1402;SDS011;696;48.546;9.896;2023-07-30T10:56:16;2.10;;;1.20;;
1402;SDS011;696;48.546;9.896;2023-07-30T10:58:43;2.50;;;0.73;;
1402;SDS011;696;48.546;9.896;2023-07-30T11:01:09;3.30;;;0.90;;
1402;SDS011;696;48.546;9.896;2023-07-30T11:03:35;2.47;;;1.30;;
1402;SDS011;696;48.546;9.896;2023-07-30T11:06:01;2.28;;;0.85;;
1402;SDS011;696;48.546;9.896;2023-07-30T11:08:36;1.30;;;0.93;;
1402;SDS011;696;48.546;9.896;2023-07-30T11:11:03;0.98;;;0.90;;
1402;SDS011;696;48.546;9.896;2023-07-30T11:13:30;1.67;;;1.20;;
1402;SDS011;696;48.546;9.896;2023-07-30T11:16:00;2.15;;;1.13;;
1402;SDS011;696;48.546;9.896;2023-07-30T11:18:25;1.05;;;0.98;;
1402;SDS011;696;48.546;9.896;2023-07-30T11:21:02;2.70;;;1.48;;
1402;SDS011;696;48.546;9.896;2023-07-30T11:23:28;2.23;;;0.87;;
1402;SDS011;696;48.546;9.896;2023-07-30T11:25:53;1.45;;;1.10;;
1402;SDS011;696;48.546;9.896;2023-07-30T11:31:01;4.38;;;1.05;;
1402;SDS011;696;48.546;9.896;2023-07-30T11:33:29;5.15;;;1.10;;
1402;SDS011;696;48.546;9.896;2023-07-30T11:35:55;2.90;;;0.93;;
1402;SDS011;696;48.546;9.896;2023-07-30T11:38:24;1.65;;;0.90;;
1402;SDS011;696;48.546;9.896;2023-07-30T11:40:51;1.58;;;1.25;;
1402;SDS011;696;48.546;9.896;2023-07-30T11:43:17;1.20;;;1.10;;
1402;SDS011;696;48.546;9.896;2023-07-30T11:45:43;2.03;;;1.20;;
1402;SDS011;696;48.546;9.896;2023-07-30T11:48:09;1.23;;;1.10;;
1402;SDS011;696;48.546;9.896;2023-07-30T11:50:45;1.60;;;0.82;;
1402;SDS011;696;48.546;9.896;2023-07-30T11:53:15;1.95;;;1.17;;
1402;SDS011;696;48.546;9.896;2023-07-30T11:55:43;0.90;;;0.77;;
1402;SDS011;696;48.546;9.896;2023-07-30T11:58:09;2.55;;;1.23;;
1402;SDS011;696;48.546;9.896;2023-07-30T12:00:35;1.23;;;1.13;;
1402;SDS011;696;48.546;9.896;2023-07-30T12:03:02;1.38;;;1.17;;
1402;SDS011;696;48.546;9.896;2023-07-30T12:05:32;1.42;;;1.02;;
1402;SDS011;696;48.546;9.896;2023-07-30T12:07:59;1.52;;;1.00;;
1402;SDS011;696;48.546;9.896;2023-07-30T12:10:27;2.38;;;1.13;;
1402;SDS011;696;48.546;9.896;2023-07-30T12:12:53;7.40;;;1.20;;
1402;SDS011;696;48.546;9.896;2023-07-30T12:15:18;1.67;;;1.15;;
1402;SDS011;696;48.546;9.896;2023-07-30T12:17:44;1.42;;;1.10;;
1402;SDS011;696;48.546;9.896;2023-07-30T12:20:10;3.45;;;1.17;;
1402;SDS011;696;48.546;9.896;2023-07-30T12:22:36;2.10;;;1.42;;
1402;SDS011;696;48.546;9.896;2023-07-30T12:25:03;1.92;;;1.10;;
1402;SDS011;696;48.546;9.896;2023-07-30T12:27:29;2.88;;;1.02;;
1402;SDS011;696;48.546;9.896;2023-07-30T12:29:54;3.70;;;1.27;;
1402;SDS011;696;48.546;9.896;2023-07-30T12:32:20;3.03;;;1.15;;
1402;SDS011;696;48.546;9.896;2023-07-30T12:34:45;1.23;;;1.00;;
1402;SDS011;696;48.546;9.896;2023-07-30T12:37:10;1.45;;;1.08;;
1402;SDS011;696;48.546;9.896;2023-07-30T12:39:36;1.77;;;1.10;;
1402;SDS011;696;48.546;9.896;2023-07-30T12:42:02;1.35;;;0.95;;
1402;SDS011;696;48.546;9.896;2023-07-30T12:44:27;1.95;;;1.15;;
1402;SDS011;696;48.546;9.896;2023-07-30T12:46:53;1.83;;;1.15;;
1402;SDS011;696;48.546;9.896;2023-07-30T12:49:18;4.68;;;0.98;;
1402;SDS011;696;48.546;9.896;2023-07-30T12:51:44;2.72;;;1.17;;
1402;SDS011;696;48.546;9.896;2023-07-30T12:54:09;1.63;;;1.08;;
1402;SDS011;696;48.546;9.896;2023-07-30T12:56:35;1.45;;;0.90;;
1402;SDS011;696;48.546;9.896;2023-07-30T12:59:00;1.83;;;1.15;;
1402;SDS011;696;48.546;9.896;2023-07-30T13:01:26;1.38;;;0.70;;
1402;SDS011;696;48.546;9.896;2023-07-30T13:03:51;0.88;;;0.82;;
1402;SDS011;696;48.546;9.896;2023-07-30T13:06:19;1.02;;;0.93;;
1402;SDS011;696;48.546;9.896;2023-07-30T13:08:45;4.05;;;1.10;;
1402;SDS011;696;48.546;9.896;2023-07-30T13:11:10;1.38;;;0.95;;
1402;SDS011;696;48.546;9.896;2023-07-30T13:13:36;1.27;;;1.15;;
1402;SDS011;696;48.546;9.896;2023-07-30T13:16:02;1.98;;;0.98;;
1402;SDS011;696;48.546;9.896;2023-07-30T13:18:28;2.40;;;1.00;;
1402;SDS011;696;48.546;9.896;2023-07-30T13:20:54;1.80;;;1.00;;
1402;SDS011;696;48.546;9.896;2023-07-30T13:23:19;1.35;;;1.00;;
1402;SDS011;696;48.546;9.896;2023-07-30T13:25:44;2.45;;;1.23;;
1402;SDS011;696;48.546;9.896;2023-07-30T13:28:10;5.13;;;1.20;;
1402;SDS011;696;48.546;9.896;2023-07-30T13:30:35;1.30;;;1.00;;
1402;SDS011;696;48.546;9.896;2023-07-30T13:33:01;1.92;;;1.13;;
1402;SDS011;696;48.546;9.896;2023-07-30T13:35:26;6.47;;;1.20;;
1402;SDS011;696;48.546;9.896;2023-07-30T13:37:51;1.30;;;0.88;;
1402;SDS011;696;48.546;9.896;2023-07-30T13:40:16;1.35;;;0.93;;
1402;SDS011;696;48.546;9.896;2023-07-30T13:42:42;6.47;;;1.38;;
1402;SDS011;696;48.546;9.896;2023-07-30T13:45:07;2.58;;;1.30;;
1402;SDS011;696;48.546;9.896;2023-07-30T13:47:33;4.53;;;1.27;;
1402;SDS011;696;48.546;9.896;2023-07-30T13:49:58;2.45;;;1.15;;
1402;SDS011;696;48.546;9.896;2023-07-30T13:52:23;2.83;;;1.33;;
1402;SDS011;696;48.546;9.896;2023-07-30T13:54:49;2.17;;;1.55;;
1402;SDS011;696;48.546;9.896;2023-07-30T13:57:21;3.25;;;1.42;;
1402;SDS011;696;48.546;9.896;2023-07-30T14:02:13;2.43;;;1.63;;
1402;SDS011;696;48.546;9.896;2023-07-30T14:04:38;1.58;;;1.10;;
1402;SDS011;696;48.546;9.896;2023-07-30T14:07:03;1.98;;;1.35;;
1402;SDS011;696;48.546;9.896;2023-07-30T14:09:29;2.47;;;1.45;;
1402;SDS011;696;48.546;9.896;2023-07-30T14:11:58;2.67;;;1.55;;
1402;SDS011;696;48.546;9.896;2023-07-30T14:14:23;2.30;;;1.27;;
1402;SDS011;696;48.546;9.896;2023-07-30T14:16:49;2.83;;;1.60;;
1402;SDS011;696;48.546;9.896;2023-07-30T14:19:14;1.73;;;1.33;;
1402;SDS011;696;48.546;9.896;2023-07-30T14:21:39;1.38;;;1.27;;
1402;SDS011;696;48.546;9.896;2023-07-30T14:24:05;9.77;;;1.60;;
1402;SDS011;696;48.546;9.896;2023-07-30T14:26:30;2.35;;;1.02;;
1402;SDS011;696;48.546;9.896;2023-07-30T14:28:56;2.00;;;1.38;;
1402;SDS011;696;48.546;9.896;2023-07-30T14:31:21;2.85;;;1.55;;
1402;SDS011;696;48.546;9.896;2023-07-30T14:33:46;2.40;;;1.52;;
1402;SDS011;696;48.546;9.896;2023-07-30T14:36:12;2.35;;;1.45;;
1402;SDS011;696;48.546;9.896;2023-07-30T14:38:37;3.42;;;1.33;;
1402;SDS011;696;48.546;9.896;2023-07-30T14:41:03;3.70;;;1.75;;
1402;SDS011;696;48.546;9.896;2023-07-30T14:43:30;3.90;;;1.70;;
1402;SDS011;696;48.546;9.896;2023-07-30T14:45:56;2.10;;;1.23;;
1402;SDS011;696;48.546;9.896;2023-07-30T14:48:21;1.40;;;1.30;;
1402;SDS011;696;48.546;9.896;2023-07-30T14:50:47;2.70;;;1.38;;
1402;SDS011;696;48.546;9.896;2023-07-30T14:53:12;2.67;;;1.50;;
1402;SDS011;696;48.546;9.896;2023-07-30T14:55:37;3.65;;;1.40;;
1402;SDS011;696;48.546;9.896;2023-07-30T14:58:03;3.47;;;1.40;;
1402;SDS011;696;48.546;9.896;2023-07-30T15:00:28;3.00;;;1.52;;
1402;SDS011;696;48.546;9.896;2023-07-30T15:02:54;5.75;;;1.73;;
1402;SDS011;696;48.546;9.896;2023-07-30T15:05:19;2.53;;;1.45;;
1402;SDS011;696;48.546;9.896;2023-07-30T15:07:44;2.38;;;1.13;;
1402;SDS011;696;48.546;9.896;2023-07-30T15:10:10;2.78;;;1.27;;
1402;SDS011;696;48.546;9.896;2023-07-30T15:12:35;2.20;;;1.60;;
1402;SDS011;696;48.546;9.896;2023-07-30T15:15:01;2.67;;;1.50;;
1402;SDS011;696;48.546;9.896;2023-07-30T15:17:27;2.53;;;1.48;;
1402;SDS011;696;48.546;9.896;2023-07-30T15:19:52;2.75;;;1.25;;
1402;SDS011;696;48.546;9.896;2023-07-30T15:22:19;2.00;;;1.23;;
1402;SDS011;696;48.546;9.896;2023-07-30T15:24:45;1.52;;;1.27;;
1402;SDS011;696;48.546;9.896;2023-07-30T15:27:10;2.22;;;1.73;;
1402;SDS011;696;48.546;9.896;2023-07-30T15:29:35;2.08;;;1.38;;
1402;SDS011;696;48.546;9.896;2023-07-30T15:32:01;3.42;;;1.70;;